Carter, Montana
Current Conditions -  °F | °C
As of 2:56 PM on Wednesday 28 Jan 2015 (Local Time) from KGFA Reporting Station
Broken Clouds Broken Clouds  
Wind Chill: 37°   Ceiling: 8000
Heat Index: 42°   Visibility: 10mi
Dew Point: 33°   Wind: 9mph
Humidity: 71%   Direction: 30°NNE
Pressure: 30.28"   Gusts: NA
Location:  47.78°N, 110.96°W
Report Text: KGFA 282156Z AUTO 03008KT 10SM BKN080 06/01 A3028 RMK AO2 SLP274 T00560008
Loading
Personal Weather Stations






























Interactive Weather Map New forecast layout! Learn more

10-Day Weather Forecast

Advertisements
Track Severe Weather on mobile